createdAt,value
2022-12-23T00:01:28.930Z,7.86
2022-12-23T00:04:00.470Z,8.04
2022-12-23T00:06:28.880Z,7.69
2022-12-23T00:08:59.441Z,7.36
2022-12-23T00:11:29.420Z,7.25
2022-12-23T00:14:31.342Z,7.33
2022-12-23T00:17:00.076Z,7.35
2022-12-23T00:19:28.706Z,7.29
2022-12-23T00:21:56.861Z,7.08
2022-12-23T00:24:25.627Z,6.93
2022-12-23T00:26:53.753Z,6.99
2022-12-23T00:29:23.316Z,7.08
2022-12-23T00:31:51.589Z,7.03
2022-12-23T00:34:19.947Z,7.29
2022-12-23T00:36:48.382Z,7.33
2022-12-23T00:39:33.733Z,7.68
2022-12-23T00:42:19.687Z,7.73
2022-12-23T00:44:49.376Z,7.51
2022-12-23T00:47:31.417Z,7.67
2022-12-23T00:50:00.052Z,7.88
2022-12-23T00:52:28.667Z,7.89
2022-12-23T00:54:56.771Z,7.68
2022-12-23T00:57:25.033Z,7.62
2022-12-23T00:59:54.820Z,7.53
2022-12-23T01:02:40.779Z,7.72
2022-12-23T01:05:29.676Z,7.68
2022-12-23T01:07:58.104Z,7.71
2022-12-23T01:10:26.736Z,7.87
2022-12-23T01:12:55.097Z,7.93
2022-12-23T01:15:25.252Z,8.08
2022-12-23T01:17:53.695Z,7.89
2022-12-23T01:20:22.048Z,8.10
2022-12-23T01:22:50.232Z,8.18
2022-12-23T01:25:19.411Z,7.89
2022-12-23T01:27:47.799Z,8.19
2022-12-23T01:30:16.105Z,8.15
2022-12-23T01:32:45.675Z,8.40
2022-12-23T01:35:14.077Z,8.17
2022-12-23T01:37:42.464Z,8.42
2022-12-23T01:40:11.803Z,8.61
2022-12-23T01:42:44.791Z,8.59
2022-12-23T01:45:18.652Z,8.56
2022-12-23T01:47:53.110Z,8.97
2022-12-23T01:50:25.118Z,8.99
2022-12-23T01:53:06.876Z,8.68
2022-12-23T01:55:39.788Z,8.57
2022-12-23T01:58:13.068Z,8.31
2022-12-23T02:01:01.248Z,8.04
2022-12-23T02:03:43.505Z,8.30
2022-12-23T02:06:36.208Z,8.32
2022-12-23T02:09:20.938Z,8.37
2022-12-23T02:12:11.387Z,8.45
2022-12-23T02:15:12.205Z,8.68
2022-12-23T02:17:52.685Z,8.06
2022-12-23T02:20:47.565Z,8.50
2022-12-23T02:23:50.173Z,8.87
2022-12-23T02:26:50.632Z,9.14
2022-12-23T02:30:04.597Z,9.21
2022-12-23T02:32:44.425Z,9.23
2022-12-23T02:35:16.307Z,8.82
2022-12-23T02:37:54.699Z,9.06
2022-12-23T02:40:32.218Z,8.89
2022-12-23T02:43:06.305Z,9.09
2022-12-23T02:45:40.516Z,9.37
2022-12-23T02:48:14.217Z,9.12
2022-12-23T02:50:45.854Z,9.31
2022-12-23T02:53:20.214Z,8.59
2022-12-23T02:55:51.664Z,8.98
2022-12-23T02:58:24.394Z,8.56
2022-12-23T03:00:53.306Z,8.98
2022-12-23T03:03:23.667Z,8.68
2022-12-23T03:05:53.445Z,8.96
2022-12-23T03:08:26.545Z,8.63
2022-12-23T03:11:04.938Z,8.87
2022-12-23T03:13:50.231Z,9.01
2022-12-23T03:16:24.755Z,8.83
2022-12-23T03:19:07.413Z,9.08
2022-12-23T03:21:42.622Z,8.95
2022-12-23T03:24:22.234Z,9.05
2022-12-23T03:26:58.912Z,9.12
2022-12-23T03:29:36.819Z,8.90
2022-12-23T03:32:06.418Z,8.96
2022-12-23T03:34:40.829Z,9.02
2022-12-23T03:37:12.101Z,8.92
2022-12-23T03:39:44.662Z,8.90
2022-12-23T03:42:18.574Z,8.73
2022-12-23T03:45:27.947Z,9.05
2022-12-23T03:47:45.498Z,9.28
2022-12-23T03:50:18.630Z,9.33
2022-12-23T03:52:53.074Z,9.37
2022-12-23T03:55:26.594Z,9.01
2022-12-23T03:58:02.107Z,8.85
2022-12-23T04:00:35.578Z,8.86
2022-12-23T04:03:11.751Z,8.96
2022-12-23T04:05:43.011Z,8.98
2022-12-23T04:08:14.495Z,8.71
2022-12-23T04:10:42.851Z,8.92
2022-12-23T04:13:11.219Z,8.64
2022-12-23T04:15:42.175Z,8.96
2022-12-23T04:18:12.037Z,9.18
2022-12-23T04:20:41.643Z,9.24
2022-12-23T04:23:10.156Z,8.99
2022-12-23T04:25:38.274Z,9.20
2022-12-23T04:28:06.583Z,8.95
2022-12-23T04:30:35.287Z,8.89
2022-12-23T04:33:03.993Z,9.14
2022-12-23T04:35:32.890Z,8.99
2022-12-23T04:38:02.887Z,8.81
2022-12-23T04:40:31.355Z,9.04
2022-12-23T04:42:59.599Z,8.89
2022-12-23T04:45:27.831Z,8.96
2022-12-23T04:47:56.311Z,9.26
2022-12-23T04:50:24.751Z,9.17
2022-12-23T04:52:53.009Z,9.34
2022-12-23T04:55:22.458Z,8.98
2022-12-23T04:57:51.246Z,9.26
2022-12-23T05:00:20.208Z,9.26
2022-12-23T05:02:48.570Z,9.26
2022-12-23T05:05:16.951Z,9.24
2022-12-23T05:07:45.471Z,9.37
2022-12-23T05:10:13.719Z,9.35
2022-12-23T05:12:43.248Z,9.46
2022-12-23T05:15:12.202Z,9.38
2022-12-23T05:17:40.354Z,9.16
2022-12-23T05:20:10.796Z,9.23
2022-12-23T05:22:39.050Z,9.51
2022-12-23T05:25:08.727Z,9.50
2022-12-23T05:27:37.391Z,9.72
2022-12-23T05:30:08.777Z,9.68
2022-12-23T05:32:39.320Z,9.53
2022-12-23T05:35:08.782Z,9.33
2022-12-23T05:37:37.098Z,9.12
2022-12-23T05:40:06.175Z,9.31
2022-12-23T05:42:34.665Z,9.42
2022-12-23T05:45:03.014Z,9.26
2022-12-23T05:47:32.844Z,9.07
2022-12-23T05:50:00.986Z,8.90
2022-12-23T05:52:29.099Z,9.31
2022-12-23T05:54:57.690Z,9.49
2022-12-23T05:57:25.763Z,9.02
2022-12-23T05:59:54.502Z,9.03
2022-12-23T06:02:23.166Z,8.97
2022-12-23T06:04:52.971Z,8.91
2022-12-23T06:07:21.195Z,8.67
2022-12-23T06:09:49.387Z,8.68
2022-12-23T06:12:18.313Z,8.48
2022-12-23T06:14:46.540Z,8.53
2022-12-23T06:17:15.656Z,8.50
2022-12-23T06:19:44.115Z,8.75
2022-12-23T06:22:13.710Z,8.51
2022-12-23T06:24:42.292Z,8.73
2022-12-23T06:27:10.541Z,8.71
2022-12-23T06:29:38.822Z,8.39
2022-12-23T06:32:07.141Z,8.27
2022-12-23T06:34:35.622Z,8.32
2022-12-23T06:37:04.089Z,8.48
2022-12-23T06:39:33.789Z,8.45
2022-12-23T06:42:02.198Z,8.38
2022-12-23T06:44:31.258Z,8.27
2022-12-23T06:46:59.658Z,8.22
2022-12-23T06:49:28.203Z,8.24
2022-12-23T06:51:56.725Z,7.98
2022-12-23T06:54:25.006Z,7.99
2022-12-23T06:56:54.482Z,8.19
2022-12-23T06:59:22.918Z,8.06
2022-12-23T07:01:51.530Z,8.17
2022-12-23T07:04:19.956Z,8.39
2022-12-23T07:06:48.099Z,8.37
2022-12-23T07:09:16.545Z,8.39
2022-12-23T07:11:44.924Z,8.15
2022-12-23T07:14:14.891Z,8.32
2022-12-23T07:16:43.157Z,8.34
2022-12-23T07:19:11.533Z,8.49
2022-12-23T07:21:40.176Z,8.18
2022-12-23T07:24:09.506Z,8.40
2022-12-23T07:26:38.994Z,8.40
2022-12-23T07:29:07.914Z,8.22
2022-12-23T07:31:40.905Z,8.39
2022-12-23T07:34:09.860Z,8.51
2022-12-23T07:36:38.133Z,8.33
2022-12-23T07:39:07.059Z,8.49
2022-12-23T07:41:35.515Z,8.60
2022-12-23T07:44:08.891Z,8.54
2022-12-23T07:46:39.324Z,8.72
2022-12-23T07:49:08.132Z,8.57
2022-12-23T07:51:36.966Z,8.66
2022-12-23T07:54:05.470Z,8.71
2022-12-23T07:56:34.338Z,8.77
2022-12-23T07:59:02.762Z,8.62
2022-12-23T08:01:32.103Z,8.54
2022-12-23T08:04:02.310Z,8.65
2022-12-23T08:06:30.449Z,8.47
2022-12-23T08:08:58.845Z,8.48
2022-12-23T08:11:27.124Z,8.56
2022-12-23T08:13:55.657Z,8.43
2022-12-23T08:16:24.622Z,8.51
2022-12-23T08:18:53.425Z,8.43
2022-12-23T08:21:23.351Z,8.63
2022-12-23T08:23:52.980Z,8.66
2022-12-23T08:26:23.340Z,8.97
2022-12-23T08:28:53.689Z,9.12
2022-12-23T08:31:24.188Z,9.00
2022-12-23T08:33:54.498Z,9.24
2022-12-23T08:36:27.780Z,9.19
2022-12-23T08:38:58.481Z,9.51
2022-12-23T08:41:29.021Z,9.02
2022-12-23T08:43:58.128Z,9.36
2022-12-23T08:46:27.432Z,9.24
2022-12-23T08:48:57.098Z,9.21
2022-12-23T08:51:28.453Z,9.34
2022-12-23T08:54:01.005Z,9.16
2022-12-23T08:56:31.894Z,9.07
2022-12-23T08:59:00.868Z,9.03
2022-12-23T09:01:31.729Z,9.30
2022-12-23T09:04:03.436Z,9.50
2022-12-23T09:06:37.916Z,9.82
2022-12-23T09:09:07.527Z,9.98
2022-12-23T09:11:36.601Z,10.06
2022-12-23T09:14:06.110Z,10.17
2022-12-23T09:16:34.845Z,10.23
2022-12-23T09:19:03.855Z,9.78
2022-12-23T09:21:32.763Z,9.88
2022-12-23T09:24:02.863Z,9.77
2022-12-23T09:26:31.862Z,9.87
2022-12-23T09:29:00.916Z,9.67
2022-12-23T09:31:36.087Z,9.67
2022-12-23T09:34:05.804Z,9.93
2022-12-23T09:36:34.613Z,9.86
2022-12-23T09:39:05.388Z,9.70
2022-12-23T09:41:53.594Z,9.78
2022-12-23T09:44:44.986Z,9.82
2022-12-23T09:47:17.612Z,9.74
2022-12-23T09:49:50.245Z,10.04
2022-12-23T09:52:30.094Z,9.51
2022-12-23T09:55:00.989Z,9.48
2022-12-23T09:57:38.276Z,9.58
2022-12-23T10:00:14.242Z,9.55
2022-12-23T10:02:57.274Z,9.48
2022-12-23T10:05:35.536Z,9.92
2022-12-23T10:08:09.515Z,9.55
2022-12-23T10:10:44.129Z,9.42
2022-12-23T10:13:26.210Z,9.73
2022-12-23T10:15:56.430Z,9.73
2022-12-23T10:18:37.070Z,9.30
2022-12-23T10:21:10.717Z,9.41
2022-12-23T10:23:42.847Z,9.38
2022-12-23T10:26:21.320Z,9.54
2022-12-23T10:28:49.881Z,9.83
2022-12-23T10:31:41.730Z,9.67
2022-12-23T10:34:21.046Z,9.56
2022-12-23T10:37:01.582Z,9.57
2022-12-23T10:39:37.520Z,9.53
2022-12-23T10:42:20.628Z,9.44
2022-12-23T10:45:20.428Z,9.66
2022-12-23T10:47:57.278Z,9.62
2022-12-23T10:50:38.834Z,9.85
2022-12-23T10:53:12.051Z,9.67
2022-12-23T10:55:41.064Z,9.42
2022-12-23T10:58:18.797Z,9.15
2022-12-23T11:00:53.313Z,8.93
2022-12-23T11:03:24.730Z,9.29
2022-12-23T11:05:54.964Z,9.23
2022-12-23T11:08:25.024Z,9.03
2022-12-23T11:10:54.266Z,9.43
2022-12-23T11:13:36.348Z,9.70
2022-12-23T11:16:18.885Z,9.41
2022-12-23T11:18:59.804Z,9.44
2022-12-23T11:21:29.200Z,9.57
2022-12-23T11:24:19.187Z,9.37
2022-12-23T11:26:51.125Z,9.85
2022-12-23T11:29:24.806Z,9.83
2022-12-23T11:31:53.856Z,9.83
2022-12-23T11:34:25.190Z,9.76
2022-12-23T11:37:01.581Z,10.03
2022-12-23T11:39:36.340Z,9.67
2022-12-23T11:42:12.454Z,9.66
2022-12-23T11:44:45.885Z,10.00
2022-12-23T11:47:29.490Z,9.92
2022-12-23T11:49:59.475Z,9.86
2022-12-23T11:52:30.235Z,9.70
2022-12-23T11:55:00.789Z,9.59
2022-12-23T11:57:39.686Z,9.66
2022-12-23T12:00:21.675Z,9.56
2022-12-23T12:02:53.698Z,9.56
2022-12-23T12:05:32.364Z,9.61
2022-12-23T12:08:04.006Z,9.59
2022-12-23T12:10:36.739Z,9.54
2022-12-23T12:13:09.323Z,9.71
2022-12-23T12:15:45.839Z,9.60
2022-12-23T12:18:18.541Z,9.53
2022-12-23T12:20:49.734Z,9.46
2022-12-23T12:23:23.466Z,9.76
2022-12-23T12:25:54.999Z,9.69
2022-12-23T12:28:27.710Z,9.74
2022-12-23T12:31:04.175Z,9.72
2022-12-23T12:33:37.507Z,9.65
2022-12-23T12:36:15.453Z,9.65
2022-12-23T12:38:48.915Z,9.60
2022-12-23T12:41:23.312Z,9.51
2022-12-23T12:44:01.713Z,9.85
2022-12-23T12:46:35.940Z,9.91
2022-12-23T12:49:13.729Z,9.81
2022-12-23T12:51:50.753Z,9.89
2022-12-23T12:54:27.289Z,9.76
2022-12-23T12:56:58.223Z,9.92
2022-12-23T12:59:29.684Z,10.22
2022-12-23T13:02:19.107Z,10.21
2022-12-23T13:05:12.017Z,10.27
2022-12-23T13:07:52.923Z,10.38
2022-12-23T13:10:34.758Z,10.16
2022-12-23T13:13:11.556Z,10.23
2022-12-23T13:15:49.223Z,10.16
2022-12-23T13:18:29.438Z,10.42
2022-12-23T13:21:04.678Z,10.27
2022-12-23T13:23:44.048Z,10.36
2022-12-23T13:26:25.334Z,10.44
2022-12-23T13:29:05.806Z,10.43
2022-12-23T13:31:47.389Z,10.50
2022-12-23T13:34:33.907Z,10.64
2022-12-23T13:37:17.209Z,10.58
2022-12-23T13:39:58.304Z,10.84
2022-12-23T13:42:33.500Z,11.06
2022-12-23T13:45:03.769Z,10.96
2022-12-23T13:47:42.684Z,10.95
2022-12-23T13:50:22.361Z,10.66
2022-12-23T13:53:09.633Z,10.23
2022-12-23T13:55:52.904Z,10.43
2022-12-23T13:58:24.023Z,10.11
2022-12-23T14:00:59.204Z,10.11
2022-12-23T14:03:34.885Z,9.99
2022-12-23T14:06:43.384Z,9.74
2022-12-23T14:09:17.448Z,9.84
2022-12-23T14:11:46.289Z,9.71
2022-12-23T14:14:23.096Z,9.71
2022-12-23T14:17:04.718Z,9.84
2022-12-23T14:19:53.033Z,9.73
2022-12-23T14:22:40.200Z,9.86
2022-12-23T14:25:32.723Z,10.14
2022-12-23T14:28:09.194Z,9.78
2022-12-23T14:30:41.248Z,9.90
2022-12-23T14:33:17.411Z,10.46
2022-12-23T14:35:54.687Z,10.39
2022-12-23T14:38:33.220Z,10.35
2022-12-23T14:41:24.628Z,10.24
2022-12-23T14:43:59.621Z,10.47
2022-12-23T14:46:59.473Z,10.25
2022-12-23T14:49:41.097Z,10.28
2022-12-23T14:52:58.853Z,10.68
2022-12-23T14:55:49.247Z,10.41
2022-12-23T14:59:06.301Z,10.59
2022-12-23T15:01:39.910Z,10.84
2022-12-23T15:04:19.740Z,10.95
2022-12-23T15:06:50.774Z,10.95
2022-12-23T15:09:27.057Z,10.98
2022-12-23T15:11:59.588Z,10.34
2022-12-23T15:14:34.137Z,10.57
2022-12-23T15:17:16.714Z,10.79
2022-12-23T15:19:48.542Z,10.76
2022-12-23T15:22:22.643Z,10.84
2022-12-23T15:24:54.342Z,10.70
2022-12-23T15:27:27.873Z,10.34
2022-12-23T15:29:58.341Z,10.50
2022-12-23T15:32:27.986Z,10.75
2022-12-23T15:35:03.695Z,10.38
2022-12-23T15:37:33.401Z,10.71
2022-12-23T15:40:12.546Z,10.75
2022-12-23T15:42:48.483Z,10.96
2022-12-23T15:45:32.694Z,10.86
2022-12-23T15:48:01.382Z,10.58
2022-12-23T15:50:30.468Z,10.36
2022-12-23T15:53:06.932Z,10.16
2022-12-23T15:55:37.828Z,10.10
2022-12-23T15:58:07.487Z,9.83
2022-12-23T16:00:40.825Z,9.87
2022-12-23T16:03:26.779Z,9.95
2022-12-23T16:05:56.509Z,10.05
2022-12-23T16:08:30.279Z,9.83
2022-12-23T16:11:06.966Z,9.55
2022-12-23T16:13:42.993Z,9.52
2022-12-23T16:16:32.056Z,9.71
2022-12-23T16:19:00.353Z,9.95
2022-12-23T16:21:32.751Z,9.88
2022-12-23T16:24:02.192Z,9.89
2022-12-23T16:26:30.802Z,10.20
2022-12-23T16:29:02.503Z,9.87
2022-12-23T16:31:30.835Z,9.83
2022-12-23T16:33:59.836Z,9.93
2022-12-23T16:36:35.985Z,9.79
2022-12-23T16:39:17.379Z,9.83
2022-12-23T16:41:46.276Z,9.75
2022-12-23T16:44:16.121Z,9.94
2022-12-23T16:46:47.273Z,10.08
2022-12-23T16:49:17.802Z,10.11
2022-12-23T16:51:46.947Z,9.94
2022-12-23T16:54:17.532Z,9.92
2022-12-23T16:56:47.530Z,10.04
2022-12-23T16:59:18.133Z,10.23
2022-12-23T17:01:48.296Z,10.38
2022-12-23T17:04:16.996Z,10.40
2022-12-23T17:06:46.685Z,11.02
2022-12-23T17:09:15.226Z,10.95
2022-12-23T17:11:46.587Z,11.08
2022-12-23T17:14:21.465Z,10.86
2022-12-23T17:16:51.482Z,11.01
2022-12-23T17:19:27.972Z,11.13
2022-12-23T17:22:02.597Z,10.90
2022-12-23T17:24:31.086Z,10.85
2022-12-23T17:26:59.871Z,10.90
2022-12-23T17:29:29.517Z,10.89
2022-12-23T17:31:58.252Z,10.86
2022-12-23T17:34:26.765Z,10.92
2022-12-23T17:36:55.248Z,10.94
2022-12-23T17:39:24.010Z,10.98
2022-12-23T17:41:52.696Z,10.91
2022-12-23T17:44:21.595Z,10.67
2022-12-23T17:46:51.164Z,10.67
2022-12-23T17:49:19.990Z,10.41
2022-12-23T17:51:48.450Z,10.28
2022-12-23T17:54:23.805Z,9.84
2022-12-23T17:56:52.076Z,10.00
2022-12-23T17:59:21.950Z,10.56
2022-12-23T18:01:52.111Z,10.76
2022-12-23T18:04:21.120Z,10.75
2022-12-23T18:06:49.818Z,10.84
2022-12-23T18:09:18.924Z,10.77
2022-12-23T18:11:48.075Z,10.68
2022-12-23T18:14:23.626Z,10.42
2022-12-23T18:17:00.898Z,10.51
2022-12-23T18:19:29.330Z,10.63
2022-12-23T18:21:58.398Z,10.48
2022-12-23T18:24:27.335Z,10.68
2022-12-23T18:26:55.589Z,10.67
2022-12-23T18:29:24.073Z,10.46
2022-12-23T18:31:53.899Z,10.37
2022-12-23T18:34:22.344Z,9.76
2022-12-23T18:36:52.327Z,10.21
2022-12-23T18:39:21.334Z,10.32
2022-12-23T18:41:49.837Z,9.67
2022-12-23T18:44:21.327Z,10.04
2022-12-23T18:46:50.468Z,9.50
2022-12-23T18:49:20.370Z,9.29
2022-12-23T18:51:48.662Z,9.37
2022-12-23T18:54:17.446Z,9.70
2022-12-23T18:56:46.906Z,9.66
2022-12-23T18:59:21.395Z,9.90
2022-12-23T19:01:58.475Z,9.81
2022-12-23T19:04:28.468Z,9.79
2022-12-23T19:06:57.544Z,9.74
2022-12-23T19:09:26.493Z,9.97
2022-12-23T19:11:55.174Z,10.15
2022-12-23T19:14:24.132Z,10.22
2022-12-23T19:16:52.957Z,10.27
2022-12-23T19:19:22.208Z,9.88
2022-12-23T19:22:16.597Z,9.87
2022-12-23T19:25:04.036Z,9.94
2022-12-23T19:27:33.940Z,10.42
2022-12-23T19:30:05.496Z,10.13
2022-12-23T19:32:37.489Z,9.14
2022-12-23T19:35:06.753Z,9.58
2022-12-23T19:37:38.427Z,9.85
2022-12-23T19:40:08.288Z,9.84
2022-12-23T19:42:38.532Z,9.61
2022-12-23T19:45:11.122Z,9.90
2022-12-23T19:47:39.997Z,9.13
2022-12-23T19:50:10.049Z,9.47
2022-12-23T19:52:39.938Z,9.33
2022-12-23T19:55:10.326Z,9.45
2022-12-23T19:57:38.961Z,9.53
2022-12-23T20:00:12.383Z,9.81
2022-12-23T20:02:41.148Z,9.50
2022-12-23T20:05:10.852Z,9.42
2022-12-23T20:07:41.270Z,9.99
2022-12-23T20:10:10.509Z,9.52
2022-12-23T20:12:40.498Z,9.76
2022-12-23T20:15:16.718Z,9.93
2022-12-23T20:17:49.027Z,9.76
2022-12-23T20:20:17.738Z,9.99
2022-12-23T20:22:47.739Z,10.08
2022-12-23T20:25:16.512Z,9.42
2022-12-23T20:27:44.764Z,9.73
2022-12-23T20:30:14.210Z,9.58
2022-12-23T20:32:42.786Z,9.16
2022-12-23T20:35:11.741Z,9.48
2022-12-23T20:37:40.059Z,8.71
2022-12-23T20:40:12.913Z,9.08
2022-12-23T20:42:41.373Z,9.13
2022-12-23T20:45:10.860Z,9.02
2022-12-23T20:47:39.487Z,9.23
2022-12-23T20:50:09.346Z,9.18
2022-12-23T20:52:37.456Z,8.89
2022-12-23T20:55:06.920Z,8.90
2022-12-23T20:57:36.733Z,9.24
2022-12-23T21:00:08.739Z,8.87
2022-12-23T21:02:37.682Z,8.41
2022-12-23T21:05:06.561Z,9.12
2022-12-23T21:07:34.731Z,9.00
2022-12-23T21:10:02.986Z,9.09
2022-12-23T21:12:31.299Z,8.76
2022-12-23T21:15:01.268Z,8.88
2022-12-23T21:17:31.241Z,9.49
2022-12-23T21:20:06.958Z,9.08
2022-12-23T21:22:36.454Z,9.65
2022-12-23T21:25:05.468Z,9.32
2022-12-23T21:27:34.223Z,8.93
2022-12-23T21:30:06.031Z,8.88
2022-12-23T21:32:34.863Z,8.79
2022-12-23T21:35:03.590Z,8.92
2022-12-23T21:37:32.027Z,8.88
2022-12-23T21:40:00.517Z,8.89
2022-12-23T21:42:28.977Z,9.34
2022-12-23T21:44:57.201Z,9.45
2022-12-23T21:47:26.774Z,9.31
2022-12-23T21:49:55.172Z,9.23
2022-12-23T21:52:23.765Z,8.80
2022-12-23T21:54:51.941Z,9.02
2022-12-23T21:57:20.606Z,8.78
2022-12-23T21:59:49.362Z,8.84
2022-12-23T22:02:18.150Z,8.67
2022-12-23T22:04:47.798Z,8.93
2022-12-23T22:07:16.142Z,8.86
2022-12-23T22:09:44.317Z,9.01
2022-12-23T22:12:12.899Z,9.14
2022-12-23T22:14:41.311Z,9.74
2022-12-23T22:17:09.438Z,10.13
2022-12-23T22:19:37.515Z,9.68
2022-12-23T22:22:07.578Z,9.04
2022-12-23T22:24:35.807Z,8.70
2022-12-23T22:27:04.380Z,9.64
2022-12-23T22:29:33.191Z,8.94
2022-12-23T22:32:02.114Z,9.10
2022-12-23T22:34:30.370Z,9.13
2022-12-23T22:36:58.920Z,9.28
2022-12-23T22:39:28.961Z,9.64
2022-12-23T22:41:57.959Z,9.45
2022-12-23T22:44:26.434Z,9.51
2022-12-23T22:46:55.126Z,9.45
2022-12-23T22:49:23.682Z,9.40
2022-12-23T22:51:52.055Z,9.59
2022-12-23T22:54:21.053Z,9.50
2022-12-23T22:56:50.759Z,9.71
2022-12-23T22:59:22.365Z,9.60
2022-12-23T23:01:52.371Z,9.94
2022-12-23T23:04:21.167Z,9.84
2022-12-23T23:06:50.125Z,9.61
2022-12-23T23:09:20.962Z,9.76
2022-12-23T23:11:51.273Z,9.74
2022-12-23T23:14:20.179Z,9.77
2022-12-23T23:16:48.847Z,10.01
2022-12-23T23:19:20.469Z,10.03
2022-12-23T23:21:49.234Z,9.85
2022-12-23T23:24:17.570Z,9.60
2022-12-23T23:26:45.833Z,9.70
2022-12-23T23:29:15.382Z,9.75
2022-12-23T23:31:44.734Z,9.50
2022-12-23T23:34:13.553Z,9.45
2022-12-23T23:36:42.125Z,9.39
2022-12-23T23:39:12.644Z,9.54
2022-12-23T23:41:41.583Z,9.59
2022-12-23T23:44:10.893Z,9.35
2022-12-23T23:46:41.147Z,9.45
2022-12-23T23:49:09.883Z,9.15
2022-12-23T23:51:39.542Z,9.33
2022-12-23T23:54:07.861Z,8.85
2022-12-23T23:56:39.201Z,9.20
2022-12-23T23:59:08.609Z,9.40
